sensor_id;sensor_type;location;lat;lon;timestamp;P1;durP1;ratioP1;P2;durP2;ratioP2
71038;SDS011;58692;43.212;27.908;2023-11-19T00:01:08;2.90;;;1.10;;
71038;SDS011;58692;43.212;27.908;2023-11-19T00:03:33;3.17;;;1.20;;
71038;SDS011;58692;43.212;27.908;2023-11-19T00:06:00;2.70;;;1.15;;
71038;SDS011;58692;43.212;27.908;2023-11-19T00:08:26;2.17;;;0.80;;
71038;SDS011;58692;43.212;27.908;2023-11-19T00:10:52;1.73;;;0.87;;
71038;SDS011;58692;43.212;27.908;2023-11-19T00:13:18;3.70;;;1.30;;
71038;SDS011;58692;43.212;27.908;2023-11-19T00:15:43;2.47;;;1.00;;
71038;SDS011;58692;43.212;27.908;2023-11-19T00:18:10;3.10;;;1.40;;
71038;SDS011;58692;43.212;27.908;2023-11-19T00:20:36;4.00;;;1.20;;
71038;SDS011;58692;43.212;27.908;2023-11-19T00:23:01;2.53;;;1.30;;
71038;SDS011;58692;43.212;27.908;2023-11-19T00:25:27;2.42;;;1.20;;
71038;SDS011;58692;43.212;27.908;2023-11-19T00:27:53;3.37;;;1.30;;
71038;SDS011;58692;43.212;27.908;2023-11-19T00:30:19;3.22;;;1.30;;
71038;SDS011;58692;43.212;27.908;2023-11-19T00:32:44;3.53;;;1.30;;
71038;SDS011;58692;43.212;27.908;2023-11-19T00:35:10;2.45;;;1.00;;
71038;SDS011;58692;43.212;27.908;2023-11-19T00:37:36;3.47;;;1.52;;
71038;SDS011;58692;43.212;27.908;2023-11-19T00:40:02;4.23;;;1.50;;
71038;SDS011;58692;43.212;27.908;2023-11-19T00:42:30;2.83;;;1.38;;
71038;SDS011;58692;43.212;27.908;2023-11-19T00:44:56;4.73;;;1.90;;
71038;SDS011;58692;43.212;27.908;2023-11-19T00:47:21;4.22;;;1.52;;
71038;SDS011;58692;43.212;27.908;2023-11-19T00:49:47;4.13;;;1.70;;
71038;SDS011;58692;43.212;27.908;2023-11-19T00:52:15;5.93;;;2.33;;
71038;SDS011;58692;43.212;27.908;2023-11-19T00:54:41;4.15;;;1.48;;
71038;SDS011;58692;43.212;27.908;2023-11-19T00:57:07;3.23;;;1.50;;
71038;SDS011;58692;43.212;27.908;2023-11-19T00:59:32;5.53;;;2.10;;
71038;SDS011;58692;43.212;27.908;2023-11-19T01:01:58;5.80;;;2.27;;
71038;SDS011;58692;43.212;27.908;2023-11-19T01:04:28;4.32;;;1.55;;
71038;SDS011;58692;43.212;27.908;2023-11-19T01:06:54;6.47;;;2.17;;
71038;SDS011;58692;43.212;27.908;2023-11-19T01:09:19;5.23;;;2.47;;
71038;SDS011;58692;43.212;27.908;2023-11-19T01:11:45;5.83;;;2.13;;
71038;SDS011;58692;43.212;27.908;2023-11-19T01:14:10;4.88;;;1.90;;
71038;SDS011;58692;43.212;27.908;2023-11-19T01:16:36;5.13;;;1.87;;
71038;SDS011;58692;43.212;27.908;2023-11-19T01:19:02;5.80;;;1.97;;
71038;SDS011;58692;43.212;27.908;2023-11-19T01:21:30;6.00;;;1.95;;
71038;SDS011;58692;43.212;27.908;2023-11-19T01:23:56;6.25;;;2.10;;
71038;SDS011;58692;43.212;27.908;2023-11-19T01:26:23;5.50;;;2.13;;
71038;SDS011;58692;43.212;27.908;2023-11-19T01:28:49;5.60;;;2.00;;
71038;SDS011;58692;43.212;27.908;2023-11-19T01:31:17;6.50;;;2.42;;
71038;SDS011;58692;43.212;27.908;2023-11-19T01:33:43;7.53;;;2.43;;
71038;SDS011;58692;43.212;27.908;2023-11-19T01:36:08;7.28;;;2.65;;
71038;SDS011;58692;43.212;27.908;2023-11-19T01:38:35;6.90;;;2.40;;
71038;SDS011;58692;43.212;27.908;2023-11-19T01:41:01;7.00;;;2.57;;
71038;SDS011;58692;43.212;27.908;2023-11-19T01:43:36;7.15;;;2.60;;
71038;SDS011;58692;43.212;27.908;2023-11-19T01:46:02;4.78;;;1.92;;
71038;SDS011;58692;43.212;27.908;2023-11-19T01:48:29;5.68;;;1.98;;
71038;SDS011;58692;43.212;27.908;2023-11-19T01:51:01;6.53;;;2.80;;
71038;SDS011;58692;43.212;27.908;2023-11-19T01:53:28;6.67;;;2.47;;
71038;SDS011;58692;43.212;27.908;2023-11-19T01:55:55;5.93;;;2.10;;
71038;SDS011;58692;43.212;27.908;2023-11-19T01:58:22;7.00;;;1.92;;
71038;SDS011;58692;43.212;27.908;2023-11-19T02:00:48;6.45;;;2.33;;
71038;SDS011;58692;43.212;27.908;2023-11-19T02:03:14;6.97;;;2.53;;
71038;SDS011;58692;43.212;27.908;2023-11-19T02:05:39;3.58;;;1.70;;
71038;SDS011;58692;43.212;27.908;2023-11-19T02:08:06;6.65;;;2.47;;
71038;SDS011;58692;43.212;27.908;2023-11-19T02:10:31;6.03;;;2.20;;
71038;SDS011;58692;43.212;27.908;2023-11-19T02:12:57;5.35;;;1.90;;
71038;SDS011;58692;43.212;27.908;2023-11-19T02:15:23;6.17;;;1.90;;
71038;SDS011;58692;43.212;27.908;2023-11-19T02:17:50;5.57;;;2.00;;
71038;SDS011;58692;43.212;27.908;2023-11-19T02:20:16;5.57;;;2.00;;
71038;SDS011;58692;43.212;27.908;2023-11-19T02:22:45;6.07;;;1.90;;
71038;SDS011;58692;43.212;27.908;2023-11-19T02:25:15;7.47;;;2.78;;
71038;SDS011;58692;43.212;27.908;2023-11-19T02:27:51;6.28;;;2.33;;
71038;SDS011;58692;43.212;27.908;2023-11-19T02:30:22;5.45;;;2.28;;
71038;SDS011;58692;43.212;27.908;2023-11-19T02:32:53;7.95;;;2.17;;
71038;SDS011;58692;43.212;27.908;2023-11-19T02:35:19;4.17;;;1.83;;
71038;SDS011;58692;43.212;27.908;2023-11-19T02:37:47;5.93;;;2.15;;
71038;SDS011;58692;43.212;27.908;2023-11-19T02:40:12;5.70;;;2.10;;
71038;SDS011;58692;43.212;27.908;2023-11-19T02:42:38;6.90;;;2.30;;
71038;SDS011;58692;43.212;27.908;2023-11-19T02:45:04;7.03;;;2.40;;
71038;SDS011;58692;43.212;27.908;2023-11-19T02:47:31;7.88;;;2.42;;
71038;SDS011;58692;43.212;27.908;2023-11-19T02:49:57;7.47;;;2.50;;
71038;SDS011;58692;43.212;27.908;2023-11-19T02:52:22;6.90;;;2.47;;
71038;SDS011;58692;43.212;27.908;2023-11-19T02:54:49;5.50;;;2.28;;
71038;SDS011;58692;43.212;27.908;2023-11-19T02:57:15;8.83;;;2.87;;
71038;SDS011;58692;43.212;27.908;2023-11-19T02:59:44;7.00;;;2.78;;
71038;SDS011;58692;43.212;27.908;2023-11-19T03:02:10;8.40;;;2.50;;
71038;SDS011;58692;43.212;27.908;2023-11-19T03:04:37;9.68;;;3.78;;
71038;SDS011;58692;43.212;27.908;2023-11-19T03:07:07;9.13;;;3.42;;
71038;SDS011;58692;43.212;27.908;2023-11-19T03:09:33;10.27;;;3.63;;
71038;SDS011;58692;43.212;27.908;2023-11-19T03:12:00;9.05;;;3.40;;
71038;SDS011;58692;43.212;27.908;2023-11-19T03:14:26;7.37;;;3.13;;
71038;SDS011;58692;43.212;27.908;2023-11-19T03:16:51;10.63;;;4.20;;
71038;SDS011;58692;43.212;27.908;2023-11-19T03:19:17;7.83;;;2.97;;
71038;SDS011;58692;43.212;27.908;2023-11-19T03:21:43;8.60;;;3.33;;
71038;SDS011;58692;43.212;27.908;2023-11-19T03:24:10;9.87;;;4.27;;
71038;SDS011;58692;43.212;27.908;2023-11-19T03:26:35;10.88;;;4.28;;
71038;SDS011;58692;43.212;27.908;2023-11-19T03:29:02;10.00;;;4.05;;
71038;SDS011;58692;43.212;27.908;2023-11-19T03:31:28;12.00;;;4.53;;
71038;SDS011;58692;43.212;27.908;2023-11-19T03:33:53;10.88;;;4.05;;
71038;SDS011;58692;43.212;27.908;2023-11-19T03:36:19;9.87;;;4.53;;
71038;SDS011;58692;43.212;27.908;2023-11-19T03:38:45;8.82;;;3.40;;
71038;SDS011;58692;43.212;27.908;2023-11-19T03:41:12;10.48;;;4.32;;
71038;SDS011;58692;43.212;27.908;2023-11-19T03:43:38;9.73;;;3.77;;
71038;SDS011;58692;43.212;27.908;2023-11-19T03:46:04;11.25;;;4.32;;
71038;SDS011;58692;43.212;27.908;2023-11-19T03:48:40;9.43;;;4.00;;
71038;SDS011;58692;43.212;27.908;2023-11-19T03:51:05;10.43;;;4.93;;
71038;SDS011;58692;43.212;27.908;2023-11-19T03:53:31;11.90;;;5.18;;
71038;SDS011;58692;43.212;27.908;2023-11-19T03:55:56;10.03;;;4.23;;
71038;SDS011;58692;43.212;27.908;2023-11-19T03:58:22;13.07;;;5.17;;
71038;SDS011;58692;43.212;27.908;2023-11-19T04:00:47;11.23;;;4.60;;
71038;SDS011;58692;43.212;27.908;2023-11-19T04:03:13;10.50;;;4.38;;
71038;SDS011;58692;43.212;27.908;2023-11-19T04:05:38;11.27;;;4.60;;
71038;SDS011;58692;43.212;27.908;2023-11-19T04:08:04;11.37;;;5.10;;
71038;SDS011;58692;43.212;27.908;2023-11-19T04:10:30;14.38;;;5.80;;
71038;SDS011;58692;43.212;27.908;2023-11-19T04:12:56;12.07;;;5.10;;
71038;SDS011;58692;43.212;27.908;2023-11-19T04:15:21;10.77;;;4.60;;
71038;SDS011;58692;43.212;27.908;2023-11-19T04:17:47;12.93;;;6.17;;
71038;SDS011;58692;43.212;27.908;2023-11-19T04:20:13;10.10;;;4.53;;
71038;SDS011;58692;43.212;27.908;2023-11-19T04:22:39;11.15;;;4.15;;
71038;SDS011;58692;43.212;27.908;2023-11-19T04:25:05;13.07;;;5.37;;
71038;SDS011;58692;43.212;27.908;2023-11-19T04:27:31;11.45;;;5.00;;
71038;SDS011;58692;43.212;27.908;2023-11-19T04:29:57;12.53;;;5.33;;
71038;SDS011;58692;43.212;27.908;2023-11-19T04:32:22;12.30;;;4.78;;
71038;SDS011;58692;43.212;27.908;2023-11-19T04:34:48;16.13;;;5.90;;
71038;SDS011;58692;43.212;27.908;2023-11-19T04:37:14;12.20;;;5.27;;
71038;SDS011;58692;43.212;27.908;2023-11-19T04:39:40;11.93;;;5.22;;
71038;SDS011;58692;43.212;27.908;2023-11-19T04:42:06;13.00;;;5.97;;
71038;SDS011;58692;43.212;27.908;2023-11-19T04:44:31;13.03;;;6.07;;
71038;SDS011;58692;43.212;27.908;2023-11-19T04:46:57;10.33;;;5.17;;
71038;SDS011;58692;43.212;27.908;2023-11-19T04:49:23;11.50;;;5.05;;
71038;SDS011;58692;43.212;27.908;2023-11-19T04:51:48;11.07;;;4.63;;
71038;SDS011;58692;43.212;27.908;2023-11-19T04:54:15;12.38;;;4.63;;
71038;SDS011;58692;43.212;27.908;2023-11-19T04:56:44;12.53;;;5.20;;
71038;SDS011;58692;43.212;27.908;2023-11-19T04:59:11;10.95;;;5.07;;
71038;SDS011;58692;43.212;27.908;2023-11-19T05:01:37;12.33;;;5.77;;
71038;SDS011;58692;43.212;27.908;2023-11-19T05:04:02;10.40;;;5.05;;
71038;SDS011;58692;43.212;27.908;2023-11-19T05:06:29;14.13;;;5.73;;
71038;SDS011;58692;43.212;27.908;2023-11-19T05:08:56;15.43;;;6.35;;
71038;SDS011;58692;43.212;27.908;2023-11-19T05:11:23;15.82;;;6.10;;
71038;SDS011;58692;43.212;27.908;2023-11-19T05:13:49;13.63;;;6.20;;
71038;SDS011;58692;43.212;27.908;2023-11-19T05:16:15;11.32;;;5.00;;
71038;SDS011;58692;43.212;27.908;2023-11-19T05:18:42;12.65;;;5.45;;
71038;SDS011;58692;43.212;27.908;2023-11-19T05:21:08;12.40;;;5.60;;
71038;SDS011;58692;43.212;27.908;2023-11-19T05:23:34;13.70;;;5.97;;
71038;SDS011;58692;43.212;27.908;2023-11-19T05:26:01;13.57;;;6.33;;
71038;SDS011;58692;43.212;27.908;2023-11-19T05:28:27;14.63;;;5.90;;
71038;SDS011;58692;43.212;27.908;2023-11-19T05:30:52;14.15;;;6.10;;
71038;SDS011;58692;43.212;27.908;2023-11-19T05:33:18;13.17;;;5.97;;
71038;SDS011;58692;43.212;27.908;2023-11-19T05:35:43;10.57;;;4.83;;
71038;SDS011;58692;43.212;27.908;2023-11-19T05:38:09;15.68;;;6.00;;
71038;SDS011;58692;43.212;27.908;2023-11-19T05:40:35;13.60;;;6.17;;
71038;SDS011;58692;43.212;27.908;2023-11-19T05:43:01;12.35;;;5.85;;
71038;SDS011;58692;43.212;27.908;2023-11-19T05:45:27;10.60;;;5.07;;
71038;SDS011;58692;43.212;27.908;2023-11-19T05:47:52;12.27;;;5.87;;
71038;SDS011;58692;43.212;27.908;2023-11-19T05:50:18;14.47;;;5.87;;
71038;SDS011;58692;43.212;27.908;2023-11-19T05:52:44;9.70;;;4.45;;
71038;SDS011;58692;43.212;27.908;2023-11-19T05:55:09;13.60;;;5.63;;
71038;SDS011;58692;43.212;27.908;2023-11-19T05:57:36;13.63;;;6.00;;
71038;SDS011;58692;43.212;27.908;2023-11-19T06:00:03;14.77;;;5.88;;
71038;SDS011;58692;43.212;27.908;2023-11-19T06:02:32;11.43;;;5.10;;
71038;SDS011;58692;43.212;27.908;2023-11-19T06:04:58;9.43;;;3.95;;
71038;SDS011;58692;43.212;27.908;2023-11-19T06:07:23;11.97;;;5.57;;
71038;SDS011;58692;43.212;27.908;2023-11-19T06:09:50;11.70;;;4.55;;
71038;SDS011;58692;43.212;27.908;2023-11-19T06:12:16;12.73;;;5.53;;
71038;SDS011;58692;43.212;27.908;2023-11-19T06:14:43;10.43;;;4.53;;
71038;SDS011;58692;43.212;27.908;2023-11-19T06:17:08;13.02;;;5.20;;
71038;SDS011;58692;43.212;27.908;2023-11-19T06:19:36;11.47;;;4.60;;
71038;SDS011;58692;43.212;27.908;2023-11-19T06:22:01;12.13;;;5.63;;
71038;SDS011;58692;43.212;27.908;2023-11-19T06:24:27;10.40;;;4.13;;
71038;SDS011;58692;43.212;27.908;2023-11-19T06:26:53;12.55;;;5.38;;
71038;SDS011;58692;43.212;27.908;2023-11-19T06:29:18;12.70;;;4.70;;
71038;SDS011;58692;43.212;27.908;2023-11-19T06:31:44;11.82;;;5.35;;
71038;SDS011;58692;43.212;27.908;2023-11-19T06:34:11;8.88;;;3.92;;
71038;SDS011;58692;43.212;27.908;2023-11-19T06:36:37;8.50;;;4.03;;
71038;SDS011;58692;43.212;27.908;2023-11-19T06:39:03;12.48;;;5.18;;
71038;SDS011;58692;43.212;27.908;2023-11-19T06:41:29;9.13;;;4.30;;
71038;SDS011;58692;43.212;27.908;2023-11-19T06:43:54;9.40;;;4.47;;
71038;SDS011;58692;43.212;27.908;2023-11-19T06:46:20;9.30;;;3.90;;
71038;SDS011;58692;43.212;27.908;2023-11-19T06:48:46;10.38;;;4.60;;
71038;SDS011;58692;43.212;27.908;2023-11-19T06:51:12;12.60;;;5.47;;
71038;SDS011;58692;43.212;27.908;2023-11-19T06:53:38;8.95;;;3.85;;
71038;SDS011;58692;43.212;27.908;2023-11-19T06:56:05;12.48;;;5.15;;
71038;SDS011;58692;43.212;27.908;2023-11-19T06:58:36;9.52;;;3.83;;
71038;SDS011;58692;43.212;27.908;2023-11-19T07:01:01;9.70;;;4.38;;
71038;SDS011;58692;43.212;27.908;2023-11-19T07:03:27;12.17;;;5.03;;
71038;SDS011;58692;43.212;27.908;2023-11-19T07:05:52;11.53;;;5.47;;
71038;SDS011;58692;43.212;27.908;2023-11-19T07:08:19;10.30;;;4.90;;
71038;SDS011;58692;43.212;27.908;2023-11-19T07:10:44;11.87;;;4.63;;
71038;SDS011;58692;43.212;27.908;2023-11-19T07:13:12;11.02;;;4.85;;
71038;SDS011;58692;43.212;27.908;2023-11-19T07:15:38;9.93;;;4.43;;
71038;SDS011;58692;43.212;27.908;2023-11-19T07:18:03;11.63;;;5.03;;
71038;SDS011;58692;43.212;27.908;2023-11-19T07:20:29;10.97;;;5.10;;
71038;SDS011;58692;43.212;27.908;2023-11-19T07:22:54;12.80;;;5.80;;
71038;SDS011;58692;43.212;27.908;2023-11-19T07:25:21;11.90;;;5.60;;
71038;SDS011;58692;43.212;27.908;2023-11-19T07:27:48;11.88;;;5.82;;
71038;SDS011;58692;43.212;27.908;2023-11-19T07:30:14;11.02;;;5.22;;
71038;SDS011;58692;43.212;27.908;2023-11-19T07:32:39;9.53;;;4.60;;
71038;SDS011;58692;43.212;27.908;2023-11-19T07:35:05;10.67;;;5.30;;
71038;SDS011;58692;43.212;27.908;2023-11-19T07:37:31;13.90;;;6.57;;
71038;SDS011;58692;43.212;27.908;2023-11-19T07:39:56;11.93;;;5.33;;
71038;SDS011;58692;43.212;27.908;2023-11-19T07:42:22;13.00;;;5.60;;
71038;SDS011;58692;43.212;27.908;2023-11-19T07:44:48;11.57;;;5.82;;
71038;SDS011;58692;43.212;27.908;2023-11-19T07:47:14;11.43;;;5.50;;
71038;SDS011;58692;43.212;27.908;2023-11-19T07:49:40;11.97;;;6.10;;
71038;SDS011;58692;43.212;27.908;2023-11-19T07:52:05;10.38;;;4.55;;
71038;SDS011;58692;43.212;27.908;2023-11-19T07:54:32;11.63;;;5.68;;
71038;SDS011;58692;43.212;27.908;2023-11-19T07:56:57;11.67;;;5.20;;
71038;SDS011;58692;43.212;27.908;2023-11-19T07:59:23;11.20;;;5.13;;
71038;SDS011;58692;43.212;27.908;2023-11-19T08:01:48;9.30;;;3.83;;
71038;SDS011;58692;43.212;27.908;2023-11-19T08:04:14;10.17;;;5.00;;
71038;SDS011;58692;43.212;27.908;2023-11-19T08:06:39;12.47;;;5.80;;
71038;SDS011;58692;43.212;27.908;2023-11-19T08:09:05;13.00;;;5.82;;
71038;SDS011;58692;43.212;27.908;2023-11-19T08:11:31;11.55;;;5.47;;
71038;SDS011;58692;43.212;27.908;2023-11-19T08:13:57;9.93;;;4.70;;
71038;SDS011;58692;43.212;27.908;2023-11-19T08:16:23;13.40;;;6.20;;
71038;SDS011;58692;43.212;27.908;2023-11-19T08:18:48;10.27;;;4.90;;
71038;SDS011;58692;43.212;27.908;2023-11-19T08:21:14;10.15;;;4.75;;
71038;SDS011;58692;43.212;27.908;2023-11-19T08:23:40;11.30;;;5.23;;
71038;SDS011;58692;43.212;27.908;2023-11-19T08:26:06;11.25;;;5.25;;
71038;SDS011;58692;43.212;27.908;2023-11-19T08:28:31;9.57;;;4.30;;
71038;SDS011;58692;43.212;27.908;2023-11-19T08:30:59;12.48;;;5.85;;
71038;SDS011;58692;43.212;27.908;2023-11-19T08:33:25;12.00;;;5.40;;
71038;SDS011;58692;43.212;27.908;2023-11-19T08:35:51;12.05;;;6.10;;
71038;SDS011;58692;43.212;27.908;2023-11-19T08:38:16;14.70;;;5.90;;
71038;SDS011;58692;43.212;27.908;2023-11-19T08:40:42;11.63;;;4.97;;
71038;SDS011;58692;43.212;27.908;2023-11-19T08:43:08;11.55;;;4.88;;
71038;SDS011;58692;43.212;27.908;2023-11-19T08:45:33;12.50;;;5.63;;
71038;SDS011;58692;43.212;27.908;2023-11-19T08:47:59;10.40;;;4.90;;
71038;SDS011;58692;43.212;27.908;2023-11-19T08:50:24;15.20;;;5.28;;
71038;SDS011;58692;43.212;27.908;2023-11-19T08:52:50;10.30;;;4.87;;
71038;SDS011;58692;43.212;27.908;2023-11-19T08:55:15;12.03;;;5.33;;
71038;SDS011;58692;43.212;27.908;2023-11-19T08:57:41;12.05;;;5.57;;
71038;SDS011;58692;43.212;27.908;2023-11-19T09:00:07;12.33;;;5.77;;
71038;SDS011;58692;43.212;27.908;2023-11-19T09:02:33;12.90;;;5.85;;
71038;SDS011;58692;43.212;27.908;2023-11-19T09:05:02;15.73;;;5.95;;
71038;SDS011;58692;43.212;27.908;2023-11-19T09:07:28;9.23;;;4.03;;
71038;SDS011;58692;43.212;27.908;2023-11-19T09:09:53;11.73;;;4.33;;
71038;SDS011;58692;43.212;27.908;2023-11-19T09:12:19;11.37;;;5.83;;
71038;SDS011;58692;43.212;27.908;2023-11-19T09:14:44;10.82;;;4.68;;
71038;SDS011;58692;43.212;27.908;2023-11-19T09:17:10;11.27;;;4.80;;
71038;SDS011;58692;43.212;27.908;2023-11-19T09:19:36;12.50;;;5.80;;
71038;SDS011;58692;43.212;27.908;2023-11-19T09:22:01;11.27;;;5.70;;
71038;SDS011;58692;43.212;27.908;2023-11-19T09:24:27;9.55;;;4.03;;
71038;SDS011;58692;43.212;27.908;2023-11-19T09:26:53;10.40;;;4.53;;
71038;SDS011;58692;43.212;27.908;2023-11-19T09:29:20;8.43;;;3.65;;
71038;SDS011;58692;43.212;27.908;2023-11-19T09:31:46;11.45;;;4.35;;
71038;SDS011;58692;43.212;27.908;2023-11-19T09:34:12;11.37;;;4.83;;
71038;SDS011;58692;43.212;27.908;2023-11-19T09:36:37;12.67;;;5.53;;
71038;SDS011;58692;43.212;27.908;2023-11-19T09:39:04;18.08;;;5.10;;
71038;SDS011;58692;43.212;27.908;2023-11-19T09:41:30;12.43;;;6.28;;
71038;SDS011;58692;43.212;27.908;2023-11-19T09:43:57;13.18;;;5.50;;
71038;SDS011;58692;43.212;27.908;2023-11-19T09:46:23;14.43;;;6.20;;
71038;SDS011;58692;43.212;27.908;2023-11-19T09:48:52;13.43;;;5.55;;
71038;SDS011;58692;43.212;27.908;2023-11-19T09:51:20;13.00;;;4.70;;
71038;SDS011;58692;43.212;27.908;2023-11-19T09:53:46;9.77;;;4.38;;
71038;SDS011;58692;43.212;27.908;2023-11-19T09:56:12;11.13;;;4.83;;
71038;SDS011;58692;43.212;27.908;2023-11-19T09:58:42;9.57;;;4.60;;
71038;SDS011;58692;43.212;27.908;2023-11-19T10:01:08;13.10;;;5.07;;
71038;SDS011;58692;43.212;27.908;2023-11-19T10:03:36;8.95;;;3.90;;
71038;SDS011;58692;43.212;27.908;2023-11-19T10:06:06;12.07;;;5.20;;
71038;SDS011;58692;43.212;27.908;2023-11-19T10:08:33;9.60;;;4.53;;
71038;SDS011;58692;43.212;27.908;2023-11-19T10:10:58;11.85;;;5.10;;
71038;SDS011;58692;43.212;27.908;2023-11-19T10:13:26;11.23;;;5.32;;
71038;SDS011;58692;43.212;27.908;2023-11-19T10:15:53;13.10;;;5.68;;
71038;SDS011;58692;43.212;27.908;2023-11-19T10:18:18;11.30;;;4.93;;
71038;SDS011;58692;43.212;27.908;2023-11-19T10:20:48;11.50;;;5.85;;
71038;SDS011;58692;43.212;27.908;2023-11-19T10:23:14;12.17;;;5.87;;
71038;SDS011;58692;43.212;27.908;2023-11-19T10:25:40;11.15;;;5.30;;
71038;SDS011;58692;43.212;27.908;2023-11-19T10:28:05;11.33;;;5.07;;
71038;SDS011;58692;43.212;27.908;2023-11-19T10:30:31;11.83;;;5.10;;
71038;SDS011;58692;43.212;27.908;2023-11-19T10:33:02;11.63;;;5.82;;
71038;SDS011;58692;43.212;27.908;2023-11-19T10:35:33;11.60;;;5.25;;
71038;SDS011;58692;43.212;27.908;2023-11-19T10:38:01;12.90;;;5.27;;
71038;SDS011;58692;43.212;27.908;2023-11-19T10:40:39;12.30;;;5.35;;
71038;SDS011;58692;43.212;27.908;2023-11-19T10:43:05;9.40;;;4.70;;
71038;SDS011;58692;43.212;27.908;2023-11-19T10:45:32;11.23;;;5.18;;
71038;SDS011;58692;43.212;27.908;2023-11-19T10:47:58;11.20;;;5.13;;
71038;SDS011;58692;43.212;27.908;2023-11-19T10:50:25;9.87;;;4.77;;
71038;SDS011;58692;43.212;27.908;2023-11-19T10:52:56;10.98;;;4.68;;
71038;SDS011;58692;43.212;27.908;2023-11-19T10:55:27;10.25;;;4.60;;
71038;SDS011;58692;43.212;27.908;2023-11-19T10:58:02;8.82;;;4.13;;
71038;SDS011;58692;43.212;27.908;2023-11-19T11:00:29;11.38;;;5.45;;
71038;SDS011;58692;43.212;27.908;2023-11-19T11:03:00;11.93;;;5.33;;
71038;SDS011;58692;43.212;27.908;2023-11-19T11:05:28;9.52;;;4.82;;
71038;SDS011;58692;43.212;27.908;2023-11-19T11:07:57;9.82;;;4.43;;
71038;SDS011;58692;43.212;27.908;2023-11-19T11:10:25;9.73;;;4.75;;
71038;SDS011;58692;43.212;27.908;2023-11-19T11:12:51;12.15;;;4.47;;
71038;SDS011;58692;43.212;27.908;2023-11-19T11:15:25;9.93;;;4.43;;
71038;SDS011;58692;43.212;27.908;2023-11-19T11:17:54;9.65;;;4.30;;
71038;SDS011;58692;43.212;27.908;2023-11-19T11:20:27;8.82;;;4.18;;
71038;SDS011;58692;43.212;27.908;2023-11-19T11:23:00;9.38;;;4.80;;
71038;SDS011;58692;43.212;27.908;2023-11-19T11:28:18;9.10;;;4.37;;
71038;SDS011;58692;43.212;27.908;2023-11-19T11:38:37;10.88;;;5.10;;
71038;SDS011;58692;43.212;27.908;2023-11-19T11:41:16;10.23;;;5.22;;
71038;SDS011;58692;43.212;27.908;2023-11-19T11:49:12;10.57;;;4.37;;
71038;SDS011;58692;43.212;27.908;2023-11-19T11:51:57;10.10;;;4.70;;
71038;SDS011;58692;43.212;27.908;2023-11-19T11:59:43;10.40;;;5.35;;
71038;SDS011;58692;43.212;27.908;2023-11-19T12:02:11;11.77;;;5.60;;
71038;SDS011;58692;43.212;27.908;2023-11-19T12:04:39;11.38;;;5.63;;
71038;SDS011;58692;43.212;27.908;2023-11-19T12:07:08;11.90;;;5.80;;
71038;SDS011;58692;43.212;27.908;2023-11-19T12:09:39;12.47;;;5.87;;
71038;SDS011;58692;43.212;27.908;2023-11-19T12:12:17;11.48;;;5.78;;
71038;SDS011;58692;43.212;27.908;2023-11-19T12:17:36;13.20;;;5.82;;
71038;SDS011;58692;43.212;27.908;2023-11-19T12:20:06;11.98;;;5.28;;
71038;SDS011;58692;43.212;27.908;2023-11-19T12:22:35;11.87;;;5.80;;
71038;SDS011;58692;43.212;27.908;2023-11-19T12:25:04;14.02;;;6.40;;
71038;SDS011;58692;43.212;27.908;2023-11-19T12:30:01;11.85;;;5.75;;
71038;SDS011;58692;43.212;27.908;2023-11-19T12:32:39;13.52;;;6.60;;
71038;SDS011;58692;43.212;27.908;2023-11-19T12:35:05;12.13;;;6.33;;
71038;SDS011;58692;43.212;27.908;2023-11-19T12:37:32;14.73;;;6.53;;
71038;SDS011;58692;43.212;27.908;2023-11-19T12:39:57;13.18;;;6.78;;
71038;SDS011;58692;43.212;27.908;2023-11-19T12:42:36;15.52;;;6.75;;
71038;SDS011;58692;43.212;27.908;2023-11-19T12:45:03;15.20;;;6.77;;
71038;SDS011;58692;43.212;27.908;2023-11-19T12:47:30;14.63;;;6.72;;
71038;SDS011;58692;43.212;27.908;2023-11-19T12:49:56;13.60;;;6.30;;
71038;SDS011;58692;43.212;27.908;2023-11-19T12:52:22;12.27;;;6.07;;
71038;SDS011;58692;43.212;27.908;2023-11-19T12:54:48;17.67;;;6.45;;
71038;SDS011;58692;43.212;27.908;2023-11-19T12:57:14;12.60;;;6.07;;
71038;SDS011;58692;43.212;27.908;2023-11-19T12:59:40;17.00;;;7.43;;
71038;SDS011;58692;43.212;27.908;2023-11-19T13:02:06;15.45;;;6.95;;
71038;SDS011;58692;43.212;27.908;2023-11-19T13:04:32;15.07;;;6.90;;
71038;SDS011;58692;43.212;27.908;2023-11-19T13:06:59;14.95;;;7.20;;
71038;SDS011;58692;43.212;27.908;2023-11-19T13:09:26;13.70;;;7.15;;
71038;SDS011;58692;43.212;27.908;2023-11-19T13:11:54;13.65;;;6.75;;
71038;SDS011;58692;43.212;27.908;2023-11-19T13:14:21;13.82;;;6.68;;
71038;SDS011;58692;43.212;27.908;2023-11-19T13:16:47;16.10;;;7.30;;
71038;SDS011;58692;43.212;27.908;2023-11-19T13:19:13;15.82;;;7.25;;
71038;SDS011;58692;43.212;27.908;2023-11-19T13:21:39;16.17;;;7.07;;
71038;SDS011;58692;43.212;27.908;2023-11-19T13:24:06;17.33;;;6.33;;
71038;SDS011;58692;43.212;27.908;2023-11-19T13:26:31;15.55;;;7.25;;
71038;SDS011;58692;43.212;27.908;2023-11-19T13:28:57;16.10;;;7.03;;
71038;SDS011;58692;43.212;27.908;2023-11-19T13:31:22;14.87;;;7.20;;
71038;SDS011;58692;43.212;27.908;2023-11-19T13:33:48;13.83;;;6.43;;
71038;SDS011;58692;43.212;27.908;2023-11-19T13:36:16;15.23;;;6.90;;
71038;SDS011;58692;43.212;27.908;2023-11-19T13:38:41;15.77;;;6.97;;
71038;SDS011;58692;43.212;27.908;2023-11-19T13:41:09;15.20;;;7.03;;
71038;SDS011;58692;43.212;27.908;2023-11-19T13:43:36;15.98;;;8.20;;
71038;SDS011;58692;43.212;27.908;2023-11-19T13:46:02;15.77;;;7.27;;
71038;SDS011;58692;43.212;27.908;2023-11-19T13:48:28;16.53;;;7.60;;
71038;SDS011;58692;43.212;27.908;2023-11-19T13:50:54;16.27;;;7.53;;
71038;SDS011;58692;43.212;27.908;2023-11-19T13:53:20;12.98;;;6.90;;
71038;SDS011;58692;43.212;27.908;2023-11-19T13:55:46;15.90;;;7.50;;
71038;SDS011;58692;43.212;27.908;2023-11-19T13:58:12;15.10;;;7.50;;
71038;SDS011;58692;43.212;27.908;2023-11-19T14:00:38;17.45;;;7.82;;
71038;SDS011;58692;43.212;27.908;2023-11-19T14:03:04;17.33;;;7.70;;
71038;SDS011;58692;43.212;27.908;2023-11-19T14:05:30;14.83;;;7.27;;
71038;SDS011;58692;43.212;27.908;2023-11-19T14:07:56;15.30;;;7.55;;
71038;SDS011;58692;43.212;27.908;2023-11-19T14:10:22;14.10;;;6.72;;
71038;SDS011;58692;43.212;27.908;2023-11-19T14:12:48;15.50;;;7.60;;
71038;SDS011;58692;43.212;27.908;2023-11-19T14:15:14;16.17;;;7.32;;
71038;SDS011;58692;43.212;27.908;2023-11-19T14:17:42;14.77;;;7.38;;
71038;SDS011;58692;43.212;27.908;2023-11-19T14:20:08;15.80;;;7.80;;
71038;SDS011;58692;43.212;27.908;2023-11-19T14:22:40;14.63;;;6.57;;
71038;SDS011;58692;43.212;27.908;2023-11-19T14:25:06;15.52;;;7.45;;
71038;SDS011;58692;43.212;27.908;2023-11-19T14:27:36;15.18;;;7.05;;
71038;SDS011;58692;43.212;27.908;2023-11-19T14:30:03;16.48;;;7.95;;
71038;SDS011;58692;43.212;27.908;2023-11-19T14:32:31;17.02;;;7.82;;
71038;SDS011;58692;43.212;27.908;2023-11-19T14:34:57;17.23;;;8.70;;
71038;SDS011;58692;43.212;27.908;2023-11-19T14:37:22;16.92;;;7.90;;
71038;SDS011;58692;43.212;27.908;2023-11-19T14:39:48;17.93;;;8.37;;
71038;SDS011;58692;43.212;27.908;2023-11-19T14:42:16;18.08;;;8.07;;
71038;SDS011;58692;43.212;27.908;2023-11-19T14:44:42;17.65;;;8.23;;
71038;SDS011;58692;43.212;27.908;2023-11-19T14:47:07;16.90;;;7.87;;
71038;SDS011;58692;43.212;27.908;2023-11-19T14:49:34;19.00;;;7.55;;